sensor_id;sensor_type;location;lat;lon;timestamp;P1;durP1;ratioP1;P2;durP2;ratioP2
15833;SDS011;8017;50.812;4.934;2022-07-29T00:01:14;5.87;;;2.07;;
15833;SDS011;8017;50.812;4.934;2022-07-29T00:04:17;3.67;;;1.57;;
15833;SDS011;8017;50.812;4.934;2022-07-29T00:07:18;1.73;;;1.23;;
15833;SDS011;8017;50.812;4.934;2022-07-29T00:10:21;4.60;;;1.70;;
15833;SDS011;8017;50.812;4.934;2022-07-29T00:13:24;2.93;;;1.40;;
15833;SDS011;8017;50.812;4.934;2022-07-29T00:16:26;5.70;;;1.90;;
15833;SDS011;8017;50.812;4.934;2022-07-29T00:19:28;4.23;;;1.83;;
15833;SDS011;8017;50.812;4.934;2022-07-29T00:22:30;3.47;;;1.83;;
15833;SDS011;8017;50.812;4.934;2022-07-29T00:25:32;4.83;;;1.90;;
15833;SDS011;8017;50.812;4.934;2022-07-29T00:28:35;3.63;;;1.57;;
15833;SDS011;8017;50.812;4.934;2022-07-29T00:31:37;4.50;;;1.70;;
15833;SDS011;8017;50.812;4.934;2022-07-29T00:34:39;3.93;;;1.90;;
15833;SDS011;8017;50.812;4.934;2022-07-29T00:37:58;8.07;;;2.20;;
15833;SDS011;8017;50.812;4.934;2022-07-29T00:41:00;5.93;;;1.90;;
15833;SDS011;8017;50.812;4.934;2022-07-29T00:44:03;4.57;;;1.80;;
15833;SDS011;8017;50.812;4.934;2022-07-29T00:47:05;5.20;;;1.67;;
15833;SDS011;8017;50.812;4.934;2022-07-29T00:50:08;4.40;;;1.40;;
15833;SDS011;8017;50.812;4.934;2022-07-29T00:53:11;3.73;;;1.73;;
15833;SDS011;8017;50.812;4.934;2022-07-29T00:56:13;3.40;;;1.50;;
15833;SDS011;8017;50.812;4.934;2022-07-29T00:59:16;4.10;;;1.70;;
15833;SDS011;8017;50.812;4.934;2022-07-29T01:02:18;4.87;;;1.80;;
15833;SDS011;8017;50.812;4.934;2022-07-29T01:05:21;3.53;;;2.17;;
15833;SDS011;8017;50.812;4.934;2022-07-29T01:08:24;3.77;;;1.87;;
15833;SDS011;8017;50.812;4.934;2022-07-29T01:11:27;4.43;;;2.10;;
15833;SDS011;8017;50.812;4.934;2022-07-29T01:14:30;4.40;;;1.70;;
15833;SDS011;8017;50.812;4.934;2022-07-29T01:17:34;3.07;;;1.60;;
15833;SDS011;8017;50.812;4.934;2022-07-29T01:20:44;5.57;;;1.90;;
15833;SDS011;8017;50.812;4.934;2022-07-29T01:24:05;4.37;;;1.70;;
15833;SDS011;8017;50.812;4.934;2022-07-29T01:27:22;2.63;;;1.70;;
15833;SDS011;8017;50.812;4.934;2022-07-29T01:30:40;6.50;;;2.30;;
15833;SDS011;8017;50.812;4.934;2022-07-29T01:33:46;6.47;;;2.10;;
15833;SDS011;8017;50.812;4.934;2022-07-29T01:36:55;3.93;;;2.00;;
15833;SDS011;8017;50.812;4.934;2022-07-29T01:40:05;5.27;;;2.23;;
15833;SDS011;8017;50.812;4.934;2022-07-29T01:43:13;1.93;;;1.73;;
15833;SDS011;8017;50.812;4.934;2022-07-29T01:46:19;5.00;;;2.10;;
15833;SDS011;8017;50.812;4.934;2022-07-29T01:49:26;7.03;;;2.77;;
15833;SDS011;8017;50.812;4.934;2022-07-29T01:52:31;2.70;;;2.10;;
15833;SDS011;8017;50.812;4.934;2022-07-29T01:55:38;3.90;;;2.27;;
15833;SDS011;8017;50.812;4.934;2022-07-29T01:58:43;4.30;;;2.13;;
15833;SDS011;8017;50.812;4.934;2022-07-29T02:01:48;3.03;;;1.83;;
15833;SDS011;8017;50.812;4.934;2022-07-29T02:04:53;6.40;;;2.40;;
15833;SDS011;8017;50.812;4.934;2022-07-29T02:07:57;4.77;;;2.53;;
15833;SDS011;8017;50.812;4.934;2022-07-29T02:11:00;3.43;;;2.27;;
15833;SDS011;8017;50.812;4.934;2022-07-29T02:14:04;7.30;;;2.30;;
15833;SDS011;8017;50.812;4.934;2022-07-29T02:17:08;5.00;;;2.43;;
15833;SDS011;8017;50.812;4.934;2022-07-29T02:20:12;3.97;;;2.20;;
15833;SDS011;8017;50.812;4.934;2022-07-29T02:23:15;4.00;;;2.20;;
15833;SDS011;8017;50.812;4.934;2022-07-29T02:26:21;5.40;;;2.63;;
15833;SDS011;8017;50.812;4.934;2022-07-29T02:29:26;3.83;;;2.60;;
15833;SDS011;8017;50.812;4.934;2022-07-29T02:32:30;3.80;;;2.40;;
15833;SDS011;8017;50.812;4.934;2022-07-29T02:35:35;4.70;;;2.30;;
15833;SDS011;8017;50.812;4.934;2022-07-29T02:38:38;3.40;;;2.03;;
15833;SDS011;8017;50.812;4.934;2022-07-29T02:41:58;4.93;;;2.07;;
15833;SDS011;8017;50.812;4.934;2022-07-29T02:45:05;6.20;;;2.60;;
15833;SDS011;8017;50.812;4.934;2022-07-29T02:48:10;4.50;;;2.30;;
15833;SDS011;8017;50.812;4.934;2022-07-29T02:51:17;3.23;;;2.00;;
15833;SDS011;8017;50.812;4.934;2022-07-29T02:54:24;6.93;;;2.83;;
15833;SDS011;8017;50.812;4.934;2022-07-29T02:57:32;6.77;;;2.67;;
15833;SDS011;8017;50.812;4.934;2022-07-29T03:00:37;3.53;;;1.97;;
15833;SDS011;8017;50.812;4.934;2022-07-29T03:03:43;5.73;;;2.87;;
15833;SDS011;8017;50.812;4.934;2022-07-29T03:06:47;3.80;;;2.50;;
15833;SDS011;8017;50.812;4.934;2022-07-29T03:09:50;4.73;;;2.57;;
15833;SDS011;8017;50.812;4.934;2022-07-29T03:12:54;6.10;;;2.53;;
15833;SDS011;8017;50.812;4.934;2022-07-29T03:15:57;5.37;;;2.93;;
15833;SDS011;8017;50.812;4.934;2022-07-29T03:19:01;4.70;;;2.50;;
15833;SDS011;8017;50.812;4.934;2022-07-29T03:22:05;6.57;;;2.53;;
15833;SDS011;8017;50.812;4.934;2022-07-29T03:25:07;7.20;;;2.70;;
15833;SDS011;8017;50.812;4.934;2022-07-29T03:28:10;6.90;;;2.77;;
15833;SDS011;8017;50.812;4.934;2022-07-29T03:31:12;5.80;;;2.60;;
15833;SDS011;8017;50.812;4.934;2022-07-29T03:34:15;6.73;;;2.67;;
15833;SDS011;8017;50.812;4.934;2022-07-29T03:37:17;6.57;;;2.97;;
15833;SDS011;8017;50.812;4.934;2022-07-29T03:40:20;5.93;;;2.53;;
15833;SDS011;8017;50.812;4.934;2022-07-29T03:43:25;4.67;;;2.90;;
15833;SDS011;8017;50.812;4.934;2022-07-29T03:46:31;3.57;;;2.50;;
15833;SDS011;8017;50.812;4.934;2022-07-29T03:49:38;6.47;;;3.20;;
15833;SDS011;8017;50.812;4.934;2022-07-29T03:52:41;5.80;;;3.20;;
15833;SDS011;8017;50.812;4.934;2022-07-29T03:55:44;6.87;;;3.40;;
15833;SDS011;8017;50.812;4.934;2022-07-29T03:58:49;4.17;;;2.60;;
15833;SDS011;8017;50.812;4.934;2022-07-29T04:01:52;4.57;;;3.17;;
15833;SDS011;8017;50.812;4.934;2022-07-29T04:04:57;7.07;;;3.30;;
15833;SDS011;8017;50.812;4.934;2022-07-29T04:07:59;4.93;;;3.03;;
15833;SDS011;8017;50.812;4.934;2022-07-29T04:11:01;5.13;;;3.23;;
15833;SDS011;8017;50.812;4.934;2022-07-29T04:14:04;3.63;;;3.00;;
15833;SDS011;8017;50.812;4.934;2022-07-29T04:17:06;6.97;;;3.47;;
15833;SDS011;8017;50.812;4.934;2022-07-29T04:20:10;6.20;;;3.03;;
15833;SDS011;8017;50.812;4.934;2022-07-29T04:23:13;5.03;;;3.00;;
15833;SDS011;8017;50.812;4.934;2022-07-29T04:26:15;5.67;;;3.17;;
15833;SDS011;8017;50.812;4.934;2022-07-29T04:29:17;8.27;;;3.50;;
15833;SDS011;8017;50.812;4.934;2022-07-29T04:32:19;6.17;;;3.27;;
15833;SDS011;8017;50.812;4.934;2022-07-29T04:35:23;4.10;;;2.87;;
15833;SDS011;8017;50.812;4.934;2022-07-29T04:38:25;6.40;;;3.60;;
15833;SDS011;8017;50.812;4.934;2022-07-29T04:41:27;5.07;;;3.53;;
15833;SDS011;8017;50.812;4.934;2022-07-29T04:44:29;5.10;;;3.17;;
15833;SDS011;8017;50.812;4.934;2022-07-29T04:47:31;6.60;;;3.77;;
15833;SDS011;8017;50.812;4.934;2022-07-29T04:50:34;10.13;;;4.00;;
15833;SDS011;8017;50.812;4.934;2022-07-29T04:53:38;10.27;;;3.90;;
15833;SDS011;8017;50.812;4.934;2022-07-29T04:56:40;5.97;;;3.47;;
15833;SDS011;8017;50.812;4.934;2022-07-29T04:59:42;9.20;;;3.43;;
15833;SDS011;8017;50.812;4.934;2022-07-29T05:02:44;10.20;;;3.83;;
15833;SDS011;8017;50.812;4.934;2022-07-29T05:05:48;9.03;;;3.10;;
15833;SDS011;8017;50.812;4.934;2022-07-29T05:08:49;4.00;;;3.13;;
15833;SDS011;8017;50.812;4.934;2022-07-29T05:11:51;6.57;;;3.10;;
15833;SDS011;8017;50.812;4.934;2022-07-29T05:14:53;5.80;;;3.50;;
15833;SDS011;8017;50.812;4.934;2022-07-29T05:17:55;7.33;;;3.37;;
15833;SDS011;8017;50.812;4.934;2022-07-29T05:20:58;4.43;;;3.53;;
15833;SDS011;8017;50.812;4.934;2022-07-29T05:24:00;7.20;;;3.40;;
15833;SDS011;8017;50.812;4.934;2022-07-29T05:27:02;10.53;;;3.57;;
15833;SDS011;8017;50.812;4.934;2022-07-29T05:30:05;5.17;;;3.93;;
15833;SDS011;8017;50.812;4.934;2022-07-29T05:33:08;5.37;;;4.10;;
15833;SDS011;8017;50.812;4.934;2022-07-29T05:36:11;6.17;;;3.70;;
15833;SDS011;8017;50.812;4.934;2022-07-29T05:39:13;6.10;;;3.47;;
15833;SDS011;8017;50.812;4.934;2022-07-29T05:42:14;8.67;;;4.10;;
15833;SDS011;8017;50.812;4.934;2022-07-29T05:45:16;6.60;;;3.63;;
15833;SDS011;8017;50.812;4.934;2022-07-29T05:48:18;7.23;;;4.17;;
15833;SDS011;8017;50.812;4.934;2022-07-29T05:51:22;6.57;;;3.93;;
15833;SDS011;8017;50.812;4.934;2022-07-29T05:54:23;6.10;;;4.00;;
15833;SDS011;8017;50.812;4.934;2022-07-29T05:57:25;11.23;;;4.37;;
15833;SDS011;8017;50.812;4.934;2022-07-29T06:00:27;7.03;;;3.70;;
15833;SDS011;8017;50.812;4.934;2022-07-29T06:03:30;5.47;;;3.87;;
15833;SDS011;8017;50.812;4.934;2022-07-29T06:06:33;7.43;;;3.97;;
15833;SDS011;8017;50.812;4.934;2022-07-29T06:09:35;7.00;;;4.10;;
15833;SDS011;8017;50.812;4.934;2022-07-29T06:12:37;6.63;;;4.60;;
15833;SDS011;8017;50.812;4.934;2022-07-29T06:15:39;9.13;;;4.80;;
15833;SDS011;8017;50.812;4.934;2022-07-29T06:18:41;6.43;;;4.07;;
15833;SDS011;8017;50.812;4.934;2022-07-29T06:21:44;6.57;;;3.67;;
15833;SDS011;8017;50.812;4.934;2022-07-29T06:24:47;6.97;;;4.67;;
15833;SDS011;8017;50.812;4.934;2022-07-29T06:27:49;6.27;;;4.10;;
15833;SDS011;8017;50.812;4.934;2022-07-29T06:30:52;4.60;;;4.13;;
15833;SDS011;8017;50.812;4.934;2022-07-29T06:33:54;6.57;;;4.30;;
15833;SDS011;8017;50.812;4.934;2022-07-29T06:36:57;8.00;;;4.37;;
15833;SDS011;8017;50.812;4.934;2022-07-29T06:39:59;6.70;;;4.10;;
15833;SDS011;8017;50.812;4.934;2022-07-29T06:43:14;6.57;;;4.40;;
15833;SDS011;8017;50.812;4.934;2022-07-29T06:46:17;6.80;;;3.90;;
15833;SDS011;8017;50.812;4.934;2022-07-29T06:49:20;7.20;;;4.40;;
15833;SDS011;8017;50.812;4.934;2022-07-29T06:52:23;7.77;;;3.93;;
15833;SDS011;8017;50.812;4.934;2022-07-29T06:55:25;6.77;;;4.60;;
15833;SDS011;8017;50.812;4.934;2022-07-29T06:58:27;7.10;;;4.07;;
15833;SDS011;8017;50.812;4.934;2022-07-29T07:01:30;5.60;;;4.50;;
15833;SDS011;8017;50.812;4.934;2022-07-29T07:04:32;7.13;;;4.43;;
15833;SDS011;8017;50.812;4.934;2022-07-29T07:07:35;5.50;;;4.30;;
15833;SDS011;8017;50.812;4.934;2022-07-29T07:10:37;6.77;;;4.00;;
15833;SDS011;8017;50.812;4.934;2022-07-29T07:13:40;8.27;;;5.03;;
15833;SDS011;8017;50.812;4.934;2022-07-29T07:16:41;7.70;;;4.67;;
15833;SDS011;8017;50.812;4.934;2022-07-29T07:19:43;6.10;;;4.40;;
15833;SDS011;8017;50.812;4.934;2022-07-29T07:22:47;5.10;;;4.47;;
15833;SDS011;8017;50.812;4.934;2022-07-29T07:25:49;6.93;;;4.17;;
15833;SDS011;8017;50.812;4.934;2022-07-29T07:28:51;6.93;;;4.33;;
15833;SDS011;8017;50.812;4.934;2022-07-29T07:31:53;5.67;;;4.70;;
15833;SDS011;8017;50.812;4.934;2022-07-29T07:34:55;8.87;;;4.30;;
15833;SDS011;8017;50.812;4.934;2022-07-29T07:37:58;7.53;;;4.43;;
15833;SDS011;8017;50.812;4.934;2022-07-29T07:41:00;6.40;;;4.23;;
15833;SDS011;8017;50.812;4.934;2022-07-29T07:44:02;6.73;;;4.63;;
15833;SDS011;8017;50.812;4.934;2022-07-29T07:47:05;7.20;;;4.47;;
15833;SDS011;8017;50.812;4.934;2022-07-29T07:50:08;6.93;;;4.30;;
15833;SDS011;8017;50.812;4.934;2022-07-29T07:53:13;6.57;;;4.43;;
15833;SDS011;8017;50.812;4.934;2022-07-29T07:56:15;7.43;;;4.63;;
15833;SDS011;8017;50.812;4.934;2022-07-29T07:59:17;6.73;;;4.20;;
15833;SDS011;8017;50.812;4.934;2022-07-29T08:02:19;6.53;;;4.13;;
15833;SDS011;8017;50.812;4.934;2022-07-29T08:05:20;6.10;;;4.30;;
15833;SDS011;8017;50.812;4.934;2022-07-29T08:08:24;5.60;;;4.10;;
15833;SDS011;8017;50.812;4.934;2022-07-29T08:11:26;7.20;;;4.60;;
15833;SDS011;8017;50.812;4.934;2022-07-29T08:14:28;7.90;;;4.67;;
15833;SDS011;8017;50.812;4.934;2022-07-29T08:17:30;7.07;;;4.00;;
15833;SDS011;8017;50.812;4.934;2022-07-29T08:20:31;5.53;;;4.70;;
15833;SDS011;8017;50.812;4.934;2022-07-29T08:23:36;7.73;;;3.80;;
15833;SDS011;8017;50.812;4.934;2022-07-29T08:26:39;5.67;;;4.30;;
15833;SDS011;8017;50.812;4.934;2022-07-29T08:29:41;4.20;;;3.53;;
15833;SDS011;8017;50.812;4.934;2022-07-29T08:32:43;6.20;;;3.73;;
15833;SDS011;8017;50.812;4.934;2022-07-29T08:35:45;4.30;;;3.67;;
15833;SDS011;8017;50.812;4.934;2022-07-29T08:38:48;7.90;;;4.10;;
15833;SDS011;8017;50.812;4.934;2022-07-29T08:41:51;5.33;;;4.20;;
15833;SDS011;8017;50.812;4.934;2022-07-29T08:44:54;5.83;;;3.70;;
15833;SDS011;8017;50.812;4.934;2022-07-29T08:47:57;8.20;;;3.30;;
15833;SDS011;8017;50.812;4.934;2022-07-29T08:51:00;5.93;;;3.57;;
15833;SDS011;8017;50.812;4.934;2022-07-29T08:54:04;7.93;;;4.00;;
15833;SDS011;8017;50.812;4.934;2022-07-29T08:57:07;5.00;;;3.50;;
15833;SDS011;8017;50.812;4.934;2022-07-29T09:00:09;6.40;;;3.60;;
15833;SDS011;8017;50.812;4.934;2022-07-29T09:03:12;5.67;;;4.53;;
15833;SDS011;8017;50.812;4.934;2022-07-29T09:06:19;7.67;;;4.40;;
15833;SDS011;8017;50.812;4.934;2022-07-29T09:09:25;6.17;;;4.80;;
15833;SDS011;8017;50.812;4.934;2022-07-29T09:12:28;4.87;;;3.73;;
15833;SDS011;8017;50.812;4.934;2022-07-29T09:15:30;9.53;;;4.30;;
15833;SDS011;8017;50.812;4.934;2022-07-29T09:18:35;5.30;;;3.80;;
15833;SDS011;8017;50.812;4.934;2022-07-29T09:21:40;6.03;;;4.37;;
15833;SDS011;8017;50.812;4.934;2022-07-29T09:25:01;7.23;;;4.23;;
15833;SDS011;8017;50.812;4.934;2022-07-29T09:28:06;5.30;;;3.93;;
15833;SDS011;8017;50.812;4.934;2022-07-29T09:31:09;8.77;;;3.70;;
15833;SDS011;8017;50.812;4.934;2022-07-29T09:34:11;5.80;;;3.87;;
15833;SDS011;8017;50.812;4.934;2022-07-29T09:37:25;5.07;;;4.00;;
15833;SDS011;8017;50.812;4.934;2022-07-29T09:40:29;7.80;;;3.47;;
15833;SDS011;8017;50.812;4.934;2022-07-29T09:43:31;5.77;;;3.20;;
15833;SDS011;8017;50.812;4.934;2022-07-29T09:46:33;4.27;;;2.77;;
15833;SDS011;8017;50.812;4.934;2022-07-29T09:49:36;4.03;;;2.30;;
15833;SDS011;8017;50.812;4.934;2022-07-29T09:52:52;8.07;;;3.20;;
15833;SDS011;8017;50.812;4.934;2022-07-29T09:55:56;5.83;;;3.20;;
15833;SDS011;8017;50.812;4.934;2022-07-29T09:59:04;5.57;;;2.40;;
15833;SDS011;8017;50.812;4.934;2022-07-29T10:02:11;3.93;;;3.10;;
15833;SDS011;8017;50.812;4.934;2022-07-29T10:05:17;3.60;;;2.70;;
15833;SDS011;8017;50.812;4.934;2022-07-29T10:08:24;2.90;;;2.20;;
15833;SDS011;8017;50.812;4.934;2022-07-29T10:11:28;4.53;;;2.13;;
15833;SDS011;8017;50.812;4.934;2022-07-29T10:14:30;4.43;;;2.30;;
15833;SDS011;8017;50.812;4.934;2022-07-29T10:17:33;2.90;;;2.20;;
15833;SDS011;8017;50.812;4.934;2022-07-29T10:20:35;5.50;;;2.57;;
15833;SDS011;8017;50.812;4.934;2022-07-29T10:23:37;5.03;;;2.10;;
15833;SDS011;8017;50.812;4.934;2022-07-29T10:26:42;3.10;;;2.10;;
15833;SDS011;8017;50.812;4.934;2022-07-29T10:29:47;5.53;;;2.67;;
15833;SDS011;8017;50.812;4.934;2022-07-29T10:36:21;5.23;;;3.10;;
15833;SDS011;8017;50.812;4.934;2022-07-29T10:39:37;4.97;;;3.03;;
15833;SDS011;8017;50.812;4.934;2022-07-29T10:42:49;4.27;;;2.63;;
15833;SDS011;8017;50.812;4.934;2022-07-29T10:45:55;4.60;;;2.87;;
15833;SDS011;8017;50.812;4.934;2022-07-29T10:49:08;4.00;;;2.50;;
15833;SDS011;8017;50.812;4.934;2022-07-29T10:52:11;3.37;;;2.50;;
15833;SDS011;8017;50.812;4.934;2022-07-29T10:58:33;5.37;;;3.20;;
15833;SDS011;8017;50.812;4.934;2022-07-29T11:01:35;5.43;;;2.97;;
15833;SDS011;8017;50.812;4.934;2022-07-29T11:08:17;5.90;;;2.83;;
15833;SDS011;8017;50.812;4.934;2022-07-29T11:11:31;2.67;;;2.33;;
15833;SDS011;8017;50.812;4.934;2022-07-29T11:18:05;3.33;;;2.27;;
15833;SDS011;8017;50.812;4.934;2022-07-29T11:21:09;4.67;;;2.00;;
15833;SDS011;8017;50.812;4.934;2022-07-29T11:24:36;4.67;;;1.87;;
15833;SDS011;8017;50.812;4.934;2022-07-29T11:27:39;4.17;;;1.90;;
15833;SDS011;8017;50.812;4.934;2022-07-29T11:30:52;4.07;;;1.80;;
15833;SDS011;8017;50.812;4.934;2022-07-29T11:33:55;2.07;;;1.50;;
15833;SDS011;8017;50.812;4.934;2022-07-29T11:37:16;3.80;;;1.63;;
15833;SDS011;8017;50.812;4.934;2022-07-29T11:40:19;3.80;;;1.50;;
15833;SDS011;8017;50.812;4.934;2022-07-29T11:46:49;3.07;;;1.63;;
15833;SDS011;8017;50.812;4.934;2022-07-29T11:49:52;2.80;;;1.43;;
15833;SDS011;8017;50.812;4.934;2022-07-29T11:52:55;2.33;;;1.40;;
15833;SDS011;8017;50.812;4.934;2022-07-29T11:55:57;4.97;;;1.70;;
15833;SDS011;8017;50.812;4.934;2022-07-29T11:59:02;3.00;;;1.60;;
15833;SDS011;8017;50.812;4.934;2022-07-29T12:02:07;3.73;;;1.80;;
15833;SDS011;8017;50.812;4.934;2022-07-29T12:05:09;3.10;;;1.70;;
15833;SDS011;8017;50.812;4.934;2022-07-29T12:08:12;1.60;;;1.40;;
15833;SDS011;8017;50.812;4.934;2022-07-29T12:11:16;2.00;;;1.50;;
15833;SDS011;8017;50.812;4.934;2022-07-29T12:14:26;3.20;;;1.53;;
15833;SDS011;8017;50.812;4.934;2022-07-29T12:17:30;4.83;;;1.60;;
15833;SDS011;8017;50.812;4.934;2022-07-29T12:20:34;3.47;;;1.50;;
15833;SDS011;8017;50.812;4.934;2022-07-29T12:23:36;3.93;;;1.80;;
15833;SDS011;8017;50.812;4.934;2022-07-29T12:26:48;2.67;;;1.47;;
15833;SDS011;8017;50.812;4.934;2022-07-29T12:29:56;4.07;;;1.70;;
15833;SDS011;8017;50.812;4.934;2022-07-29T12:33:01;5.50;;;1.50;;
15833;SDS011;8017;50.812;4.934;2022-07-29T12:36:11;3.23;;;1.30;;
15833;SDS011;8017;50.812;4.934;2022-07-29T12:39:15;1.57;;;1.40;;
15833;SDS011;8017;50.812;4.934;2022-07-29T12:42:17;4.63;;;1.93;;
15833;SDS011;8017;50.812;4.934;2022-07-29T12:45:27;4.43;;;1.77;;
15833;SDS011;8017;50.812;4.934;2022-07-29T12:48:34;3.03;;;1.53;;
15833;SDS011;8017;50.812;4.934;2022-07-29T12:51:38;1.67;;;1.43;;
15833;SDS011;8017;50.812;4.934;2022-07-29T12:54:46;3.97;;;1.80;;
15833;SDS011;8017;50.812;4.934;2022-07-29T12:57:49;3.80;;;1.80;;
15833;SDS011;8017;50.812;4.934;2022-07-29T13:01:00;4.00;;;1.67;;
15833;SDS011;8017;50.812;4.934;2022-07-29T13:04:05;5.43;;;1.70;;
15833;SDS011;8017;50.812;4.934;2022-07-29T13:07:07;4.03;;;1.73;;
15833;SDS011;8017;50.812;4.934;2022-07-29T13:10:10;3.50;;;1.73;;
15833;SDS011;8017;50.812;4.934;2022-07-29T13:13:14;3.60;;;2.10;;
15833;SDS011;8017;50.812;4.934;2022-07-29T13:16:16;2.23;;;1.53;;
15833;SDS011;8017;50.812;4.934;2022-07-29T13:19:31;2.23;;;1.73;;
15833;SDS011;8017;50.812;4.934;2022-07-29T13:22:34;2.27;;;1.50;;
15833;SDS011;8017;50.812;4.934;2022-07-29T13:25:36;4.80;;;2.17;;
15833;SDS011;8017;50.812;4.934;2022-07-29T13:28:40;4.83;;;1.60;;
15833;SDS011;8017;50.812;4.934;2022-07-29T13:31:42;3.13;;;1.53;;
15833;SDS011;8017;50.812;4.934;2022-07-29T13:34:46;2.83;;;1.70;;
15833;SDS011;8017;50.812;4.934;2022-07-29T13:37:48;4.03;;;1.53;;
15833;SDS011;8017;50.812;4.934;2022-07-29T13:40:49;5.20;;;1.83;;
15833;SDS011;8017;50.812;4.934;2022-07-29T13:43:51;1.93;;;1.30;;
15833;SDS011;8017;50.812;4.934;2022-07-29T13:46:53;5.60;;;1.80;;
15833;SDS011;8017;50.812;4.934;2022-07-29T13:49:57;5.30;;;2.00;;
15833;SDS011;8017;50.812;4.934;2022-07-29T13:52:59;4.10;;;1.80;;
15833;SDS011;8017;50.812;4.934;2022-07-29T13:56:00;3.83;;;1.67;;
15833;SDS011;8017;50.812;4.934;2022-07-29T13:59:02;4.33;;;2.00;;
15833;SDS011;8017;50.812;4.934;2022-07-29T14:02:04;3.77;;;1.70;;
15833;SDS011;8017;50.812;4.934;2022-07-29T14:05:08;5.17;;;2.13;;
15833;SDS011;8017;50.812;4.934;2022-07-29T14:08:10;4.03;;;1.67;;
15833;SDS011;8017;50.812;4.934;2022-07-29T14:11:12;4.97;;;2.00;;
15833;SDS011;8017;50.812;4.934;2022-07-29T14:14:14;2.20;;;1.50;;
15833;SDS011;8017;50.812;4.934;2022-07-29T14:17:16;5.00;;;2.07;;
15833;SDS011;8017;50.812;4.934;2022-07-29T14:20:19;2.13;;;1.38;;
15833;SDS011;8017;50.812;4.934;2022-07-29T14:23:21;6.22;;;2.10;;
15833;SDS011;8017;50.812;4.934;2022-07-29T14:26:23;3.17;;;1.63;;
15833;SDS011;8017;50.812;4.934;2022-07-29T14:29:25;7.57;;;1.48;;
15833;SDS011;8017;50.812;4.934;2022-07-29T14:32:27;3.53;;;1.60;;
15833;SDS011;8017;50.812;4.934;2022-07-29T14:35:30;3.10;;;1.73;;
15833;SDS011;8017;50.812;4.934;2022-07-29T14:38:32;4.23;;;1.57;;
15833;SDS011;8017;50.812;4.934;2022-07-29T14:41:34;2.08;;;1.30;;
15833;SDS011;8017;50.812;4.934;2022-07-29T14:44:36;4.50;;;1.90;;
15833;SDS011;8017;50.812;4.934;2022-07-29T14:47:38;4.18;;;1.70;;
15833;SDS011;8017;50.812;4.934;2022-07-29T14:50:42;3.53;;;1.40;;
15833;SDS011;8017;50.812;4.934;2022-07-29T14:53:44;4.30;;;1.70;;
15833;SDS011;8017;50.812;4.934;2022-07-29T14:56:46;3.20;;;1.73;;
15833;SDS011;8017;50.812;4.934;2022-07-29T14:59:49;3.63;;;1.67;;
15833;SDS011;8017;50.812;4.934;2022-07-29T15:02:51;3.77;;;1.90;;
15833;SDS011;8017;50.812;4.934;2022-07-29T15:05:54;3.63;;;1.60;;
15833;SDS011;8017;50.812;4.934;2022-07-29T15:08:56;3.23;;;1.83;;
15833;SDS011;8017;50.812;4.934;2022-07-29T15:11:58;2.20;;;1.53;;
15833;SDS011;8017;50.812;4.934;2022-07-29T15:15:02;3.80;;;1.70;;
15833;SDS011;8017;50.812;4.934;2022-07-29T15:18:05;5.13;;;1.77;;
15833;SDS011;8017;50.812;4.934;2022-07-29T15:21:08;4.13;;;2.00;;
15833;SDS011;8017;50.812;4.934;2022-07-29T15:24:10;6.77;;;2.13;;
15833;SDS011;8017;50.812;4.934;2022-07-29T15:27:12;6.47;;;2.20;;
15833;SDS011;8017;50.812;4.934;2022-07-29T15:30:15;3.37;;;2.30;;
15833;SDS011;8017;50.812;4.934;2022-07-29T15:33:17;5.00;;;2.10;;
15833;SDS011;8017;50.812;4.934;2022-07-29T15:36:20;5.10;;;2.00;;
15833;SDS011;8017;50.812;4.934;2022-07-29T15:39:22;4.80;;;2.40;;
15833;SDS011;8017;50.812;4.934;2022-07-29T15:42:24;5.97;;;2.40;;
15833;SDS011;8017;50.812;4.934;2022-07-29T15:45:26;5.95;;;2.80;;
15833;SDS011;8017;50.812;4.934;2022-07-29T15:48:28;3.53;;;2.03;;
15833;SDS011;8017;50.812;4.934;2022-07-29T15:51:32;4.10;;;2.20;;
15833;SDS011;8017;50.812;4.934;2022-07-29T15:54:35;5.55;;;2.90;;
15833;SDS011;8017;50.812;4.934;2022-07-29T15:57:38;5.97;;;2.60;;
15833;SDS011;8017;50.812;4.934;2022-07-29T16:00:40;3.78;;;2.25;;
15833;SDS011;8017;50.812;4.934;2022-07-29T16:03:42;6.05;;;2.70;;
15833;SDS011;8017;50.812;4.934;2022-07-29T16:06:46;8.93;;;3.00;;
15833;SDS011;8017;50.812;4.934;2022-07-29T16:09:48;5.22;;;2.22;;
15833;SDS011;8017;50.812;4.934;2022-07-29T16:12:50;4.68;;;2.42;;
15833;SDS011;8017;50.812;4.934;2022-07-29T16:15:52;4.20;;;2.13;;
15833;SDS011;8017;50.812;4.934;2022-07-29T16:18:54;4.05;;;2.08;;
15833;SDS011;8017;50.812;4.934;2022-07-29T16:21:57;5.90;;;2.00;;
15833;SDS011;8017;50.812;4.934;2022-07-29T16:25:00;5.90;;;2.22;;
15833;SDS011;8017;50.812;4.934;2022-07-29T16:28:02;3.65;;;2.10;;
15833;SDS011;8017;50.812;4.934;2022-07-29T16:31:04;4.15;;;1.92;;
15833;SDS011;8017;50.812;4.934;2022-07-29T16:34:06;5.38;;;2.40;;
15833;SDS011;8017;50.812;4.934;2022-07-29T16:37:09;6.10;;;2.20;;
15833;SDS011;8017;50.812;4.934;2022-07-29T16:40:11;4.55;;;2.10;;
15833;SDS011;8017;50.812;4.934;2022-07-29T16:43:13;4.63;;;2.45;;
15833;SDS011;8017;50.812;4.934;2022-07-29T16:46:15;6.43;;;1.92;;
15833;SDS011;8017;50.812;4.934;2022-07-29T16:49:17;4.45;;;2.00;;
15833;SDS011;8017;50.812;4.934;2022-07-29T16:52:20;4.22;;;1.88;;
15833;SDS011;8017;50.812;4.934;2022-07-29T16:55:22;4.70;;;2.08;;
15833;SDS011;8017;50.812;4.934;2022-07-29T16:58:24;5.93;;;1.98;;
15833;SDS011;8017;50.812;4.934;2022-07-29T17:01:26;5.85;;;1.70;;
15833;SDS011;8017;50.812;4.934;2022-07-29T17:04:28;4.13;;;1.50;;
15833;SDS011;8017;50.812;4.934;2022-07-29T17:07:32;2.60;;;1.50;;
15833;SDS011;8017;50.812;4.934;2022-07-29T17:10:34;2.85;;;1.65;;
15833;SDS011;8017;50.812;4.934;2022-07-29T17:13:36;3.90;;;1.90;;
15833;SDS011;8017;50.812;4.934;2022-07-29T17:16:38;3.95;;;1.70;;
15833;SDS011;8017;50.812;4.934;2022-07-29T17:19:40;4.43;;;1.60;;
15833;SDS011;8017;50.812;4.934;2022-07-29T17:22:43;4.28;;;1.80;;
15833;SDS011;8017;50.812;4.934;2022-07-29T17:25:45;2.72;;;1.20;;
15833;SDS011;8017;50.812;4.934;2022-07-29T17:28:47;5.00;;;1.83;;
15833;SDS011;8017;50.812;4.934;2022-07-29T17:31:49;4.50;;;1.35;;
15833;SDS011;8017;50.812;4.934;2022-07-29T17:34:51;4.53;;;1.35;;
15833;SDS011;8017;50.812;4.934;2022-07-29T17:37:54;4.18;;;1.40;;
15833;SDS011;8017;50.812;4.934;2022-07-29T17:40:56;4.13;;;1.30;;
15833;SDS011;8017;50.812;4.934;2022-07-29T17:43:58;3.83;;;1.40;;
15833;SDS011;8017;50.812;4.934;2022-07-29T17:47:00;2.58;;;1.42;;
15833;SDS011;8017;50.812;4.934;2022-07-29T17:50:03;2.63;;;1.40;;
15833;SDS011;8017;50.812;4.934;2022-07-29T17:53:07;5.55;;;1.60;;
15833;SDS011;8017;50.812;4.934;2022-07-29T17:56:09;4.00;;;1.30;;
15833;SDS011;8017;50.812;4.934;2022-07-29T17:59:10;6.50;;;1.40;;
15833;SDS011;8017;50.812;4.934;2022-07-29T18:02:13;4.40;;;1.77;;
15833;SDS011;8017;50.812;4.934;2022-07-29T18:05:15;3.78;;;1.73;;
15833;SDS011;8017;50.812;4.934;2022-07-29T18:08:18;3.50;;;1.67;;
15833;SDS011;8017;50.812;4.934;2022-07-29T18:11:21;2.47;;;1.38;;
15833;SDS011;8017;50.812;4.934;2022-07-29T18:14:23;4.63;;;1.40;;
15833;SDS011;8017;50.812;4.934;2022-07-29T18:17:25;4.45;;;1.60;;
15833;SDS011;8017;50.812;4.934;2022-07-29T18:20:27;2.85;;;1.60;;
15833;SDS011;8017;50.812;4.934;2022-07-29T18:23:31;4.47;;;1.73;;
15833;SDS011;8017;50.812;4.934;2022-07-29T18:26:33;2.15;;;1.60;;
15833;SDS011;8017;50.812;4.934;2022-07-29T18:29:35;5.20;;;1.60;;
15833;SDS011;8017;50.812;4.934;2022-07-29T18:32:37;3.47;;;1.30;;
15833;SDS011;8017;50.812;4.934;2022-07-29T18:35:39;5.43;;;1.80;;
15833;SDS011;8017;50.812;4.934;2022-07-29T18:38:42;6.67;;;1.60;;
15833;SDS011;8017;50.812;4.934;2022-07-29T18:41:44;4.17;;;1.90;;
15833;SDS011;8017;50.812;4.934;2022-07-29T18:44:46;3.07;;;1.90;;
15833;SDS011;8017;50.812;4.934;2022-07-29T18:47:47;4.10;;;2.07;;
15833;SDS011;8017;50.812;4.934;2022-07-29T18:50:49;3.50;;;1.80;;
15833;SDS011;8017;50.812;4.934;2022-07-29T18:53:52;6.07;;;1.97;;
15833;SDS011;8017;50.812;4.934;2022-07-29T18:56:54;3.93;;;1.93;;
15833;SDS011;8017;50.812;4.934;2022-07-29T18:59:56;3.33;;;1.57;;